sensor_id;sensor_type;location;lat;lon;timestamp;temperature;humidity
5334;DHT22;2689;50.954;7.116;2023-06-14T00:00:41;19.30;55.00
5334;DHT22;2689;50.954;7.116;2023-06-14T00:03:08;19.20;55.20
5334;DHT22;2689;50.954;7.116;2023-06-14T00:05:37;19.20;55.70
5334;DHT22;2689;50.954;7.116;2023-06-14T00:08:08;19.10;56.10
5334;DHT22;2689;50.954;7.116;2023-06-14T00:10:37;19.00;56.50
5334;DHT22;2689;50.954;7.116;2023-06-14T00:13:07;19.00;56.90
5334;DHT22;2689;50.954;7.116;2023-06-14T00:15:34;18.90;57.20
5334;DHT22;2689;50.954;7.116;2023-06-14T00:18:02;18.80;57.40
5334;DHT22;2689;50.954;7.116;2023-06-14T00:20:29;18.80;57.50
5334;DHT22;2689;50.954;7.116;2023-06-14T00:22:58;18.80;57.20
5334;DHT22;2689;50.954;7.116;2023-06-14T00:25:25;18.70;57.30
5334;DHT22;2689;50.954;7.116;2023-06-14T00:27:54;18.70;57.40
5334;DHT22;2689;50.954;7.116;2023-06-14T00:30:21;18.70;57.40
5334;DHT22;2689;50.954;7.116;2023-06-14T00:32:48;18.60;57.30
5334;DHT22;2689;50.954;7.116;2023-06-14T00:35:15;18.60;56.70
5334;DHT22;2689;50.954;7.116;2023-06-14T00:37:42;18.60;56.60
5334;DHT22;2689;50.954;7.116;2023-06-14T00:40:09;18.60;56.60
5334;DHT22;2689;50.954;7.116;2023-06-14T00:42:35;18.50;56.40
5334;DHT22;2689;50.954;7.116;2023-06-14T00:45:04;18.50;56.00
5334;DHT22;2689;50.954;7.116;2023-06-14T00:47:31;18.60;55.60
5334;DHT22;2689;50.954;7.116;2023-06-14T00:49:58;18.60;55.30
5334;DHT22;2689;50.954;7.116;2023-06-14T00:52:26;18.60;55.00
5334;DHT22;2689;50.954;7.116;2023-06-14T00:54:55;18.70;55.00
5334;DHT22;2689;50.954;7.116;2023-06-14T00:57:21;18.70;55.20
5334;DHT22;2689;50.954;7.116;2023-06-14T00:59:49;18.70;55.00
5334;DHT22;2689;50.954;7.116;2023-06-14T01:02:18;18.70;54.90
5334;DHT22;2689;50.954;7.116;2023-06-14T01:04:46;18.60;54.90
5334;DHT22;2689;50.954;7.116;2023-06-14T01:07:23;18.70;54.80
5334;DHT22;2689;50.954;7.116;2023-06-14T01:10:02;18.70;54.40
5334;DHT22;2689;50.954;7.116;2023-06-14T01:12:37;18.70;54.20
5334;DHT22;2689;50.954;7.116;2023-06-14T01:15:06;18.70;54.00
5334;DHT22;2689;50.954;7.116;2023-06-14T01:17:35;18.80;53.80
5334;DHT22;2689;50.954;7.116;2023-06-14T01:20:10;18.80;53.70
5334;DHT22;2689;50.954;7.116;2023-06-14T01:22:51;18.80;53.40
5334;DHT22;2689;50.954;7.116;2023-06-14T01:25:18;18.90;53.40
5334;DHT22;2689;50.954;7.116;2023-06-14T01:27:47;18.90;53.20
5334;DHT22;2689;50.954;7.116;2023-06-14T01:30:15;18.90;53.00
5334;DHT22;2689;50.954;7.116;2023-06-14T01:32:42;18.90;52.90
5334;DHT22;2689;50.954;7.116;2023-06-14T01:35:10;18.90;52.90
5334;DHT22;2689;50.954;7.116;2023-06-14T01:37:37;18.90;53.00
5334;DHT22;2689;50.954;7.116;2023-06-14T01:40:06;18.90;52.90
5334;DHT22;2689;50.954;7.116;2023-06-14T01:42:36;18.90;52.80
5334;DHT22;2689;50.954;7.116;2023-06-14T01:45:05;18.90;52.70
5334;DHT22;2689;50.954;7.116;2023-06-14T01:47:33;18.90;52.70
5334;DHT22;2689;50.954;7.116;2023-06-14T01:50:00;18.90;52.50
5334;DHT22;2689;50.954;7.116;2023-06-14T01:52:26;18.90;52.40
5334;DHT22;2689;50.954;7.116;2023-06-14T01:54:53;18.90;52.40
5334;DHT22;2689;50.954;7.116;2023-06-14T01:57:22;18.90;52.30
5334;DHT22;2689;50.954;7.116;2023-06-14T01:59:49;18.90;52.00
5334;DHT22;2689;50.954;7.116;2023-06-14T02:02:16;18.90;52.20
5334;DHT22;2689;50.954;7.116;2023-06-14T02:04:43;18.90;52.10
5334;DHT22;2689;50.954;7.116;2023-06-14T02:07:12;18.90;51.90
5334;DHT22;2689;50.954;7.116;2023-06-14T02:09:40;18.80;51.90
5334;DHT22;2689;50.954;7.116;2023-06-14T02:12:07;18.80;51.90
5334;DHT22;2689;50.954;7.116;2023-06-14T02:14:35;18.80;52.00
5334;DHT22;2689;50.954;7.116;2023-06-14T02:17:04;18.80;52.10
5334;DHT22;2689;50.954;7.116;2023-06-14T02:19:31;18.70;52.00
5334;DHT22;2689;50.954;7.116;2023-06-14T02:21:58;18.70;51.90
5334;DHT22;2689;50.954;7.116;2023-06-14T02:24:25;18.70;52.00
5334;DHT22;2689;50.954;7.116;2023-06-14T02:26:52;18.60;52.20
5334;DHT22;2689;50.954;7.116;2023-06-14T02:29:19;18.60;52.30
5334;DHT22;2689;50.954;7.116;2023-06-14T02:31:47;18.60;52.90
5334;DHT22;2689;50.954;7.116;2023-06-14T02:34:15;18.60;53.40
5334;DHT22;2689;50.954;7.116;2023-06-14T02:36:43;18.50;53.70
5334;DHT22;2689;50.954;7.116;2023-06-14T02:39:11;18.50;54.10
5334;DHT22;2689;50.954;7.116;2023-06-14T02:41:38;18.40;54.50
5334;DHT22;2689;50.954;7.116;2023-06-14T02:44:05;18.20;54.80
5334;DHT22;2689;50.954;7.116;2023-06-14T02:46:32;18.20;55.40
5334;DHT22;2689;50.954;7.116;2023-06-14T02:49:00;18.20;55.70
5334;DHT22;2689;50.954;7.116;2023-06-14T02:51:27;18.00;56.30
5334;DHT22;2689;50.954;7.116;2023-06-14T02:53:54;18.00;56.90
5334;DHT22;2689;50.954;7.116;2023-06-14T02:56:21;17.90;56.90
5334;DHT22;2689;50.954;7.116;2023-06-14T02:58:48;17.70;57.30
5334;DHT22;2689;50.954;7.116;2023-06-14T03:01:16;17.70;57.70
5334;DHT22;2689;50.954;7.116;2023-06-14T03:03:43;17.60;58.20
5334;DHT22;2689;50.954;7.116;2023-06-14T03:06:11;17.60;58.60
5334;DHT22;2689;50.954;7.116;2023-06-14T03:08:39;17.40;58.60
5334;DHT22;2689;50.954;7.116;2023-06-14T03:11:07;17.30;58.50
5334;DHT22;2689;50.954;7.116;2023-06-14T03:13:34;17.30;58.40
5334;DHT22;2689;50.954;7.116;2023-06-14T03:16:01;17.20;58.40
5334;DHT22;2689;50.954;7.116;2023-06-14T03:18:29;17.20;58.50
5334;DHT22;2689;50.954;7.116;2023-06-14T03:20:56;17.20;58.40
5334;DHT22;2689;50.954;7.116;2023-06-14T03:23:25;17.10;58.80
5334;DHT22;2689;50.954;7.116;2023-06-14T03:25:52;17.20;59.50
5334;DHT22;2689;50.954;7.116;2023-06-14T03:28:18;17.20;60.20
5334;DHT22;2689;50.954;7.116;2023-06-14T03:30:45;17.10;60.70
5334;DHT22;2689;50.954;7.116;2023-06-14T03:33:12;17.10;60.90
5334;DHT22;2689;50.954;7.116;2023-06-14T03:35:39;17.10;61.10
5334;DHT22;2689;50.954;7.116;2023-06-14T03:38:05;17.00;61.50
5334;DHT22;2689;50.954;7.116;2023-06-14T03:40:33;17.00;62.00
5334;DHT22;2689;50.954;7.116;2023-06-14T03:43:00;16.90;62.50
5334;DHT22;2689;50.954;7.116;2023-06-14T03:45:27;16.90;63.30
5334;DHT22;2689;50.954;7.116;2023-06-14T03:47:54;16.80;63.90
5334;DHT22;2689;50.954;7.116;2023-06-14T03:50:22;16.80;63.80
5334;DHT22;2689;50.954;7.116;2023-06-14T03:52:48;16.80;64.00
5334;DHT22;2689;50.954;7.116;2023-06-14T03:55:15;16.80;64.10
5334;DHT22;2689;50.954;7.116;2023-06-14T03:57:43;16.70;64.30
5334;DHT22;2689;50.954;7.116;2023-06-14T04:00:11;16.70;64.80
5334;DHT22;2689;50.954;7.116;2023-06-14T04:02:38;16.70;65.10
5334;DHT22;2689;50.954;7.116;2023-06-14T04:05:05;16.70;66.10
5334;DHT22;2689;50.954;7.116;2023-06-14T04:07:34;16.70;66.30
5334;DHT22;2689;50.954;7.116;2023-06-14T04:10:07;16.70;66.70
5334;DHT22;2689;50.954;7.116;2023-06-14T04:12:34;16.60;67.10
5334;DHT22;2689;50.954;7.116;2023-06-14T04:15:02;16.60;67.30
5334;DHT22;2689;50.954;7.116;2023-06-14T04:17:31;16.50;67.80
5334;DHT22;2689;50.954;7.116;2023-06-14T04:19:59;16.50;68.20
5334;DHT22;2689;50.954;7.116;2023-06-14T04:22:26;16.60;68.70
5334;DHT22;2689;50.954;7.116;2023-06-14T04:24:54;16.60;68.50
5334;DHT22;2689;50.954;7.116;2023-06-14T04:27:22;16.60;68.90
5334;DHT22;2689;50.954;7.116;2023-06-14T04:29:51;16.60;69.40
5334;DHT22;2689;50.954;7.116;2023-06-14T04:32:24;16.60;69.80
5334;DHT22;2689;50.954;7.116;2023-06-14T04:34:52;16.60;70.10
5334;DHT22;2689;50.954;7.116;2023-06-14T04:37:20;16.60;70.70
5334;DHT22;2689;50.954;7.116;2023-06-14T04:39:47;16.70;70.70
5334;DHT22;2689;50.954;7.116;2023-06-14T04:42:14;16.70;70.80
5334;DHT22;2689;50.954;7.116;2023-06-14T04:44:41;16.70;71.20
5334;DHT22;2689;50.954;7.116;2023-06-14T04:47:09;16.70;71.50
5334;DHT22;2689;50.954;7.116;2023-06-14T04:49:38;16.70;71.00
5334;DHT22;2689;50.954;7.116;2023-06-14T04:52:06;16.70;68.50
5334;DHT22;2689;50.954;7.116;2023-06-14T04:54:35;16.80;67.50
5334;DHT22;2689;50.954;7.116;2023-06-14T04:57:03;16.90;67.10
5334;DHT22;2689;50.954;7.116;2023-06-14T04:59:31;16.90;67.20
5334;DHT22;2689;50.954;7.116;2023-06-14T05:01:58;17.00;65.50
5334;DHT22;2689;50.954;7.116;2023-06-14T05:04:25;17.00;64.20
5334;DHT22;2689;50.954;7.116;2023-06-14T05:06:53;17.10;64.10
5334;DHT22;2689;50.954;7.116;2023-06-14T05:09:20;17.20;62.30
5334;DHT22;2689;50.954;7.116;2023-06-14T05:11:47;17.30;62.20
5334;DHT22;2689;50.954;7.116;2023-06-14T05:14:16;17.40;61.70
5334;DHT22;2689;50.954;7.116;2023-06-14T05:16:42;17.40;61.20
5334;DHT22;2689;50.954;7.116;2023-06-14T05:19:10;17.50;60.90
5334;DHT22;2689;50.954;7.116;2023-06-14T05:21:36;17.60;60.10
5334;DHT22;2689;50.954;7.116;2023-06-14T05:24:05;17.70;59.80
5334;DHT22;2689;50.954;7.116;2023-06-14T05:26:32;17.70;59.80
5334;DHT22;2689;50.954;7.116;2023-06-14T05:28:59;17.80;59.90
5334;DHT22;2689;50.954;7.116;2023-06-14T05:31:27;17.90;59.70
5334;DHT22;2689;50.954;7.116;2023-06-14T05:33:54;18.00;59.70
5334;DHT22;2689;50.954;7.116;2023-06-14T05:36:21;18.00;59.70
5334;DHT22;2689;50.954;7.116;2023-06-14T05:38:48;18.20;60.30
5334;DHT22;2689;50.954;7.116;2023-06-14T05:41:16;18.30;59.30
5334;DHT22;2689;50.954;7.116;2023-06-14T05:43:43;18.40;58.90
5334;DHT22;2689;50.954;7.116;2023-06-14T05:46:10;18.40;58.80
5334;DHT22;2689;50.954;7.116;2023-06-14T05:48:37;18.50;58.90
5334;DHT22;2689;50.954;7.116;2023-06-14T05:51:04;18.60;58.90
5334;DHT22;2689;50.954;7.116;2023-06-14T05:53:34;18.70;58.40
5334;DHT22;2689;50.954;7.116;2023-06-14T05:56:01;18.70;58.10
5334;DHT22;2689;50.954;7.116;2023-06-14T05:58:29;18.90;57.50
5334;DHT22;2689;50.954;7.116;2023-06-14T06:00:56;18.90;57.50
5334;DHT22;2689;50.954;7.116;2023-06-14T06:03:23;19.00;57.50
5334;DHT22;2689;50.954;7.116;2023-06-14T06:05:49;19.10;57.40
5334;DHT22;2689;50.954;7.116;2023-06-14T06:08:16;19.30;56.60
5334;DHT22;2689;50.954;7.116;2023-06-14T06:10:43;19.40;57.10
5334;DHT22;2689;50.954;7.116;2023-06-14T06:13:10;19.40;56.70
5334;DHT22;2689;50.954;7.116;2023-06-14T06:15:38;19.50;56.60
5334;DHT22;2689;50.954;7.116;2023-06-14T06:18:05;19.50;56.40
5334;DHT22;2689;50.954;7.116;2023-06-14T06:20:32;19.60;56.30
5334;DHT22;2689;50.954;7.116;2023-06-14T06:22:59;19.70;56.20
5334;DHT22;2689;50.954;7.116;2023-06-14T06:25:26;19.90;55.50
5334;DHT22;2689;50.954;7.116;2023-06-14T06:27:54;19.80;55.10
5334;DHT22;2689;50.954;7.116;2023-06-14T06:30:21;19.90;55.50
5334;DHT22;2689;50.954;7.116;2023-06-14T06:32:49;20.00;55.40
5334;DHT22;2689;50.954;7.116;2023-06-14T06:35:16;20.00;55.10
5334;DHT22;2689;50.954;7.116;2023-06-14T06:37:43;20.10;55.10
5334;DHT22;2689;50.954;7.116;2023-06-14T06:40:10;20.20;55.30
5334;DHT22;2689;50.954;7.116;2023-06-14T06:42:37;20.30;55.00
5334;DHT22;2689;50.954;7.116;2023-06-14T06:45:05;20.40;55.00
5334;DHT22;2689;50.954;7.116;2023-06-14T06:47:32;20.50;54.70
5334;DHT22;2689;50.954;7.116;2023-06-14T06:50:00;20.60;54.30
5334;DHT22;2689;50.954;7.116;2023-06-14T06:52:27;20.70;53.70
5334;DHT22;2689;50.954;7.116;2023-06-14T06:54:54;20.70;53.80
5334;DHT22;2689;50.954;7.116;2023-06-14T06:57:21;20.90;53.70
5334;DHT22;2689;50.954;7.116;2023-06-14T06:59:48;21.00;51.90
5334;DHT22;2689;50.954;7.116;2023-06-14T07:02:15;21.10;52.00
5334;DHT22;2689;50.954;7.116;2023-06-14T07:04:42;21.20;52.20
5334;DHT22;2689;50.954;7.116;2023-06-14T07:07:10;21.40;51.10
5334;DHT22;2689;50.954;7.116;2023-06-14T07:09:37;21.40;50.60
5334;DHT22;2689;50.954;7.116;2023-06-14T07:12:04;21.50;50.20
5334;DHT22;2689;50.954;7.116;2023-06-14T07:14:32;21.60;49.80
5334;DHT22;2689;50.954;7.116;2023-06-14T07:16:59;21.60;50.40
5334;DHT22;2689;50.954;7.116;2023-06-14T07:19:25;21.80;49.90
5334;DHT22;2689;50.954;7.116;2023-06-14T07:21:52;21.90;50.20
5334;DHT22;2689;50.954;7.116;2023-06-14T07:24:20;22.10;49.90
5334;DHT22;2689;50.954;7.116;2023-06-14T07:26:47;22.20;49.50
5334;DHT22;2689;50.954;7.116;2023-06-14T07:29:14;22.40;47.60
5334;DHT22;2689;50.954;7.116;2023-06-14T07:31:42;22.60;48.20
5334;DHT22;2689;50.954;7.116;2023-06-14T07:34:09;22.80;47.20
5334;DHT22;2689;50.954;7.116;2023-06-14T07:36:36;22.90;45.50
5334;DHT22;2689;50.954;7.116;2023-06-14T07:39:03;23.00;44.80
5334;DHT22;2689;50.954;7.116;2023-06-14T07:41:33;23.20;44.50
5334;DHT22;2689;50.954;7.116;2023-06-14T07:44:00;23.30;44.40
5334;DHT22;2689;50.954;7.116;2023-06-14T07:46:27;23.40;44.00
5334;DHT22;2689;50.954;7.116;2023-06-14T07:48:53;23.50;44.20
5334;DHT22;2689;50.954;7.116;2023-06-14T07:51:20;23.70;44.80
5334;DHT22;2689;50.954;7.116;2023-06-14T07:53:48;23.80;44.30
5334;DHT22;2689;50.954;7.116;2023-06-14T07:56:15;24.00;43.20
5334;DHT22;2689;50.954;7.116;2023-06-14T07:58:44;24.10;42.70
5334;DHT22;2689;50.954;7.116;2023-06-14T08:01:10;24.20;41.50
5334;DHT22;2689;50.954;7.116;2023-06-14T08:03:40;24.30;43.20
5334;DHT22;2689;50.954;7.116;2023-06-14T08:06:11;24.40;42.80
5334;DHT22;2689;50.954;7.116;2023-06-14T08:08:37;24.60;40.40
5334;DHT22;2689;50.954;7.116;2023-06-14T08:11:04;24.60;40.30
5334;DHT22;2689;50.954;7.116;2023-06-14T08:13:34;24.80;40.00
5334;DHT22;2689;50.954;7.116;2023-06-14T08:16:21;24.90;39.40
5334;DHT22;2689;50.954;7.116;2023-06-14T08:18:48;25.00;39.00
5334;DHT22;2689;50.954;7.116;2023-06-14T08:21:17;25.10;38.50
5334;DHT22;2689;50.954;7.116;2023-06-14T08:23:44;25.00;38.50
5334;DHT22;2689;50.954;7.116;2023-06-14T08:26:12;25.10;38.40
5334;DHT22;2689;50.954;7.116;2023-06-14T08:28:39;25.20;38.60
5334;DHT22;2689;50.954;7.116;2023-06-14T08:31:06;25.20;38.70
5334;DHT22;2689;50.954;7.116;2023-06-14T08:33:34;25.30;39.00
5334;DHT22;2689;50.954;7.116;2023-06-14T08:36:01;25.40;39.00
5334;DHT22;2689;50.954;7.116;2023-06-14T08:38:27;25.70;38.90
5334;DHT22;2689;50.954;7.116;2023-06-14T08:40:57;25.90;38.50
5334;DHT22;2689;50.954;7.116;2023-06-14T08:43:24;26.00;37.70
5334;DHT22;2689;50.954;7.116;2023-06-14T08:45:56;26.10;39.30
5334;DHT22;2689;50.954;7.116;2023-06-14T08:48:26;26.20;37.30
5334;DHT22;2689;50.954;7.116;2023-06-14T08:50:56;26.30;37.10
5334;DHT22;2689;50.954;7.116;2023-06-14T08:53:28;26.60;37.40
5334;DHT22;2689;50.954;7.116;2023-06-14T08:55:57;27.10;36.60
5334;DHT22;2689;50.954;7.116;2023-06-14T08:58:27;27.60;36.10
5334;DHT22;2689;50.954;7.116;2023-06-14T09:00:55;28.00;35.20
5334;DHT22;2689;50.954;7.116;2023-06-14T09:03:21;28.80;34.20
5334;DHT22;2689;50.954;7.116;2023-06-14T09:05:57;29.80;33.40
5334;DHT22;2689;50.954;7.116;2023-06-14T09:08:26;30.90;31.80
5334;DHT22;2689;50.954;7.116;2023-06-14T09:10:56;32.20;30.30
5334;DHT22;2689;50.954;7.116;2023-06-14T09:13:23;33.20;29.20
5334;DHT22;2689;50.954;7.116;2023-06-14T09:15:49;33.90;27.80
5334;DHT22;2689;50.954;7.116;2023-06-14T09:18:16;34.60;27.00
5334;DHT22;2689;50.954;7.116;2023-06-14T09:20:45;35.50;26.90
5334;DHT22;2689;50.954;7.116;2023-06-14T09:23:14;36.00;25.80
5334;DHT22;2689;50.954;7.116;2023-06-14T09:25:46;36.10;24.90
5334;DHT22;2689;50.954;7.116;2023-06-14T09:28:13;36.50;25.40
5334;DHT22;2689;50.954;7.116;2023-06-14T09:30:40;36.90;24.30
5334;DHT22;2689;50.954;7.116;2023-06-14T09:33:07;37.30;24.30
5334;DHT22;2689;50.954;7.116;2023-06-14T09:35:34;37.60;24.30
5334;DHT22;2689;50.954;7.116;2023-06-14T09:38:01;37.50;23.70
5334;DHT22;2689;50.954;7.116;2023-06-14T09:40:34;37.50;23.90
5334;DHT22;2689;50.954;7.116;2023-06-14T09:43:01;37.90;23.80
5334;DHT22;2689;50.954;7.116;2023-06-14T09:45:29;38.10;23.60
5334;DHT22;2689;50.954;7.116;2023-06-14T09:47:58;38.10;23.20
5334;DHT22;2689;50.954;7.116;2023-06-14T09:50:24;38.40;23.60
5334;DHT22;2689;50.954;7.116;2023-06-14T09:52:52;38.90;24.20
5334;DHT22;2689;50.954;7.116;2023-06-14T09:55:22;39.40;22.70
5334;DHT22;2689;50.954;7.116;2023-06-14T09:57:51;39.30;22.30
5334;DHT22;2689;50.954;7.116;2023-06-14T10:00:18;39.90;22.80
5334;DHT22;2689;50.954;7.116;2023-06-14T10:02:51;40.10;23.00
5334;DHT22;2689;50.954;7.116;2023-06-14T10:05:20;40.50;21.80
5334;DHT22;2689;50.954;7.116;2023-06-14T10:07:52;40.50;22.60
5334;DHT22;2689;50.954;7.116;2023-06-14T10:10:19;40.30;22.00
5334;DHT22;2689;50.954;7.116;2023-06-14T10:12:46;40.10;21.90
5334;DHT22;2689;50.954;7.116;2023-06-14T10:15:19;40.10;21.70
5334;DHT22;2689;50.954;7.116;2023-06-14T10:17:50;40.40;22.20
5334;DHT22;2689;50.954;7.116;2023-06-14T10:20:27;40.80;22.10
5334;DHT22;2689;50.954;7.116;2023-06-14T10:23:00;40.80;21.90
5334;DHT22;2689;50.954;7.116;2023-06-14T10:25:29;41.40;21.70
5334;DHT22;2689;50.954;7.116;2023-06-14T10:28:05;41.60;22.00
5334;DHT22;2689;50.954;7.116;2023-06-14T10:31:02;42.20;21.60
5334;DHT22;2689;50.954;7.116;2023-06-14T10:33:29;42.50;21.20
5334;DHT22;2689;50.954;7.116;2023-06-14T10:36:07;42.50;21.30
5334;DHT22;2689;50.954;7.116;2023-06-14T10:38:36;42.30;20.60
5334;DHT22;2689;50.954;7.116;2023-06-14T10:41:04;41.90;21.20
5334;DHT22;2689;50.954;7.116;2023-06-14T10:43:30;41.80;21.60
5334;DHT22;2689;50.954;7.116;2023-06-14T10:46:18;41.40;21.90
5334;DHT22;2689;50.954;7.116;2023-06-14T10:48:48;41.10;22.00
5334;DHT22;2689;50.954;7.116;2023-06-14T10:51:17;40.80;22.30
5334;DHT22;2689;50.954;7.116;2023-06-14T10:53:46;41.10;22.30
5334;DHT22;2689;50.954;7.116;2023-06-14T10:56:23;41.50;22.00
5334;DHT22;2689;50.954;7.116;2023-06-14T10:58:51;41.70;22.40
5334;DHT22;2689;50.954;7.116;2023-06-14T11:01:31;41.60;22.10
5334;DHT22;2689;50.954;7.116;2023-06-14T11:04:07;41.40;22.50
5334;DHT22;2689;50.954;7.116;2023-06-14T11:06:45;41.00;22.30
5334;DHT22;2689;50.954;7.116;2023-06-14T11:09:30;40.60;22.40
5334;DHT22;2689;50.954;7.116;2023-06-14T11:12:04;40.40;22.90
5334;DHT22;2689;50.954;7.116;2023-06-14T11:14:32;40.30;23.60
5334;DHT22;2689;50.954;7.116;2023-06-14T11:17:01;39.90;23.10
5334;DHT22;2689;50.954;7.116;2023-06-14T11:19:27;40.20;23.90
5334;DHT22;2689;50.954;7.116;2023-06-14T11:21:55;40.20;23.70
5334;DHT22;2689;50.954;7.116;2023-06-14T11:24:21;40.20;23.40
5334;DHT22;2689;50.954;7.116;2023-06-14T11:26:48;39.90;23.00
5334;DHT22;2689;50.954;7.116;2023-06-14T11:29:16;39.50;23.00
5334;DHT22;2689;50.954;7.116;2023-06-14T11:31:43;39.70;23.00
5334;DHT22;2689;50.954;7.116;2023-06-14T11:34:12;39.60;22.00
5334;DHT22;2689;50.954;7.116;2023-06-14T11:36:39;39.80;22.20
5334;DHT22;2689;50.954;7.116;2023-06-14T11:39:07;39.70;22.10
5334;DHT22;2689;50.954;7.116;2023-06-14T11:41:38;39.70;22.00
5334;DHT22;2689;50.954;7.116;2023-06-14T11:44:05;39.30;21.70
5334;DHT22;2689;50.954;7.116;2023-06-14T11:46:32;38.90;21.90
5334;DHT22;2689;50.954;7.116;2023-06-14T11:48:59;39.00;22.80
5334;DHT22;2689;50.954;7.116;2023-06-14T11:51:30;39.20;22.20
5334;DHT22;2689;50.954;7.116;2023-06-14T11:53:57;39.10;22.60
5334;DHT22;2689;50.954;7.116;2023-06-14T11:56:24;39.20;22.70
5334;DHT22;2689;50.954;7.116;2023-06-14T11:58:52;39.30;22.50
5334;DHT22;2689;50.954;7.116;2023-06-14T12:01:22;39.30;22.40
5334;DHT22;2689;50.954;7.116;2023-06-14T12:03:49;39.10;22.80
5334;DHT22;2689;50.954;7.116;2023-06-14T12:06:26;39.30;22.50
5334;DHT22;2689;50.954;7.116;2023-06-14T12:08:56;39.50;22.50
5334;DHT22;2689;50.954;7.116;2023-06-14T12:11:24;39.10;22.70
5334;DHT22;2689;50.954;7.116;2023-06-14T12:13:54;39.20;23.10
5334;DHT22;2689;50.954;7.116;2023-06-14T12:16:30;39.20;22.80
5334;DHT22;2689;50.954;7.116;2023-06-14T12:19:00;38.70;22.90
5334;DHT22;2689;50.954;7.116;2023-06-14T12:21:28;38.40;23.40
5334;DHT22;2689;50.954;7.116;2023-06-14T12:23:59;37.40;23.20
5334;DHT22;2689;50.954;7.116;2023-06-14T12:26:26;36.70;24.90
5334;DHT22;2689;50.954;7.116;2023-06-14T12:28:53;36.60;25.20
5334;DHT22;2689;50.954;7.116;2023-06-14T12:31:20;36.90;25.20
5334;DHT22;2689;50.954;7.116;2023-06-14T12:33:47;37.00;24.70
5334;DHT22;2689;50.954;7.116;2023-06-14T12:36:15;36.80;24.50
5334;DHT22;2689;50.954;7.116;2023-06-14T12:38:43;37.00;25.10
5334;DHT22;2689;50.954;7.116;2023-06-14T12:41:12;36.90;24.90
5334;DHT22;2689;50.954;7.116;2023-06-14T12:43:40;36.90;25.00
5334;DHT22;2689;50.954;7.116;2023-06-14T12:46:06;37.20;25.50
5334;DHT22;2689;50.954;7.116;2023-06-14T12:48:33;37.20;24.30
5334;DHT22;2689;50.954;7.116;2023-06-14T12:51:00;36.40;25.10
5334;DHT22;2689;50.954;7.116;2023-06-14T12:53:27;36.10;25.30
5334;DHT22;2689;50.954;7.116;2023-06-14T12:55:54;36.40;26.10
5334;DHT22;2689;50.954;7.116;2023-06-14T12:58:22;36.60;24.90
5334;DHT22;2689;50.954;7.116;2023-06-14T13:00:49;36.40;25.20
5334;DHT22;2689;50.954;7.116;2023-06-14T13:03:16;36.20;25.40
5334;DHT22;2689;50.954;7.116;2023-06-14T13:05:42;35.90;25.70
5334;DHT22;2689;50.954;7.116;2023-06-14T13:08:09;35.70;25.70
5334;DHT22;2689;50.954;7.116;2023-06-14T13:10:36;35.60;26.10
5334;DHT22;2689;50.954;7.116;2023-06-14T13:13:03;35.30;26.60
5334;DHT22;2689;50.954;7.116;2023-06-14T13:15:31;35.10;26.30
5334;DHT22;2689;50.954;7.116;2023-06-14T13:17:58;35.10;26.60
5334;DHT22;2689;50.954;7.116;2023-06-14T13:20:25;35.20;26.00
5334;DHT22;2689;50.954;7.116;2023-06-14T13:22:51;34.80;26.30
5334;DHT22;2689;50.954;7.116;2023-06-14T13:25:18;34.50;26.50
5334;DHT22;2689;50.954;7.116;2023-06-14T13:27:45;34.20;26.60
5334;DHT22;2689;50.954;7.116;2023-06-14T13:30:12;34.10;27.30
5334;DHT22;2689;50.954;7.116;2023-06-14T13:32:40;33.90;27.20
5334;DHT22;2689;50.954;7.116;2023-06-14T13:35:07;33.90;27.40
5334;DHT22;2689;50.954;7.116;2023-06-14T13:37:34;34.00;27.60
5334;DHT22;2689;50.954;7.116;2023-06-14T13:40:01;33.90;27.20
5334;DHT22;2689;50.954;7.116;2023-06-14T13:42:28;33.80;26.90
5334;DHT22;2689;50.954;7.116;2023-06-14T13:44:57;33.80;27.30
5334;DHT22;2689;50.954;7.116;2023-06-14T13:47:23;33.50;27.30
5334;DHT22;2689;50.954;7.116;2023-06-14T13:49:51;33.50;27.20
5334;DHT22;2689;50.954;7.116;2023-06-14T13:52:18;33.30;27.50
5334;DHT22;2689;50.954;7.116;2023-06-14T13:54:45;33.20;27.80
5334;DHT22;2689;50.954;7.116;2023-06-14T13:57:12;33.20;28.10
5334;DHT22;2689;50.954;7.116;2023-06-14T13:59:39;32.80;28.00
5334;DHT22;2689;50.954;7.116;2023-06-14T14:02:06;32.50;28.40
5334;DHT22;2689;50.954;7.116;2023-06-14T14:04:33;32.10;28.60
5334;DHT22;2689;50.954;7.116;2023-06-14T14:07:02;31.60;29.40
5334;DHT22;2689;50.954;7.116;2023-06-14T14:09:29;31.00;29.70
5334;DHT22;2689;50.954;7.116;2023-06-14T14:11:55;30.70;30.70
5334;DHT22;2689;50.954;7.116;2023-06-14T14:14:22;30.50;31.90
5334;DHT22;2689;50.954;7.116;2023-06-14T14:16:50;30.50;32.30
5334;DHT22;2689;50.954;7.116;2023-06-14T14:19:18;30.50;30.80
5334;DHT22;2689;50.954;7.116;2023-06-14T14:21:45;30.20;30.90
5334;DHT22;2689;50.954;7.116;2023-06-14T14:24:13;30.10;31.20
5334;DHT22;2689;50.954;7.116;2023-06-14T14:26:41;29.90;31.30
5334;DHT22;2689;50.954;7.116;2023-06-14T14:29:08;29.70;31.40
5334;DHT22;2689;50.954;7.116;2023-06-14T14:31:37;29.40;32.20
5334;DHT22;2689;50.954;7.116;2023-06-14T14:34:03;29.30;33.00
5334;DHT22;2689;50.954;7.116;2023-06-14T14:36:30;29.10;33.20
5334;DHT22;2689;50.954;7.116;2023-06-14T14:38:58;29.30;33.70
5334;DHT22;2689;50.954;7.116;2023-06-14T14:41:27;29.20;33.30
5334;DHT22;2689;50.954;7.116;2023-06-14T14:43:54;28.90;33.60
5334;DHT22;2689;50.954;7.116;2023-06-14T14:46:21;28.70;34.20
5334;DHT22;2689;50.954;7.116;2023-06-14T14:48:49;28.60;34.40
5334;DHT22;2689;50.954;7.116;2023-06-14T14:51:15;28.40;34.10
5334;DHT22;2689;50.954;7.116;2023-06-14T14:53:42;28.40;34.20
5334;DHT22;2689;50.954;7.116;2023-06-14T14:56:09;28.10;34.30
5334;DHT22;2689;50.954;7.116;2023-06-14T14:58:38;28.00;34.90
5334;DHT22;2689;50.954;7.116;2023-06-14T15:01:05;27.90;34.70
5334;DHT22;2689;50.954;7.116;2023-06-14T15:03:32;27.80;35.30
5334;DHT22;2689;50.954;7.116;2023-06-14T15:05:59;27.90;35.30
5334;DHT22;2689;50.954;7.116;2023-06-14T15:08:26;27.90;34.60
5334;DHT22;2689;50.954;7.116;2023-06-14T15:10:52;27.90;34.60
5334;DHT22;2689;50.954;7.116;2023-06-14T15:13:19;27.60;34.60
5334;DHT22;2689;50.954;7.116;2023-06-14T15:15:48;27.50;35.20
5334;DHT22;2689;50.954;7.116;2023-06-14T15:18:15;27.30;36.50
5334;DHT22;2689;50.954;7.116;2023-06-14T15:20:42;27.40;36.40
5334;DHT22;2689;50.954;7.116;2023-06-14T15:23:09;27.50;36.40
5334;DHT22;2689;50.954;7.116;2023-06-14T15:25:36;27.90;36.20
5334;DHT22;2689;50.954;7.116;2023-06-14T15:28:03;28.10;35.40
5334;DHT22;2689;50.954;7.116;2023-06-14T15:30:32;28.20;34.70
5334;DHT22;2689;50.954;7.116;2023-06-14T15:33:00;28.20;34.80
5334;DHT22;2689;50.954;7.116;2023-06-14T15:35:27;28.10;35.00
5334;DHT22;2689;50.954;7.116;2023-06-14T15:37:53;28.00;35.20
5334;DHT22;2689;50.954;7.116;2023-06-14T15:40:20;27.90;35.50
5334;DHT22;2689;50.954;7.116;2023-06-14T15:42:47;27.90;34.80
5334;DHT22;2689;50.954;7.116;2023-06-14T15:45:14;27.80;34.40
5334;DHT22;2689;50.954;7.116;2023-06-14T15:47:41;27.70;34.30
5334;DHT22;2689;50.954;7.116;2023-06-14T15:50:10;27.80;34.90
5334;DHT22;2689;50.954;7.116;2023-06-14T15:52:37;27.90;34.80
5334;DHT22;2689;50.954;7.116;2023-06-14T15:55:05;27.70;34.90
5334;DHT22;2689;50.954;7.116;2023-06-14T15:57:32;27.60;35.30
5334;DHT22;2689;50.954;7.116;2023-06-14T15:59:59;27.60;35.40
5334;DHT22;2689;50.954;7.116;2023-06-14T16:02:25;27.70;35.90
5334;DHT22;2689;50.954;7.116;2023-06-14T16:04:52;27.80;35.20
5334;DHT22;2689;50.954;7.116;2023-06-14T16:07:21;27.80;34.90